sensor_id;sensor_type;location;lat;lon;timestamp;temperature;humidity
21811;DHT22;11067;48.788;9.208;2023-08-08T00:00:04;14.40;99.90
21811;DHT22;11067;48.788;9.208;2023-08-08T00:02:30;14.40;99.90
21811;DHT22;11067;48.788;9.208;2023-08-08T00:04:56;14.40;99.90
21811;DHT22;11067;48.788;9.208;2023-08-08T00:07:22;14.40;99.90
21811;DHT22;11067;48.788;9.208;2023-08-08T00:09:47;14.30;99.90
21811;DHT22;11067;48.788;9.208;2023-08-08T00:12:13;14.30;99.90
21811;DHT22;11067;48.788;9.208;2023-08-08T00:14:38;14.40;99.90
21811;DHT22;11067;48.788;9.208;2023-08-08T00:17:04;14.40;99.90
21811;DHT22;11067;48.788;9.208;2023-08-08T00:19:30;14.50;99.90
21811;DHT22;11067;48.788;9.208;2023-08-08T00:21:55;14.60;99.90
21811;DHT22;11067;48.788;9.208;2023-08-08T00:24:21;14.50;99.90
21811;DHT22;11067;48.788;9.208;2023-08-08T00:26:46;14.50;99.90
21811;DHT22;11067;48.788;9.208;2023-08-08T00:29:12;14.60;99.90
21811;DHT22;11067;48.788;9.208;2023-08-08T00:31:37;14.60;99.90
21811;DHT22;11067;48.788;9.208;2023-08-08T00:34:03;14.70;99.90
21811;DHT22;11067;48.788;9.208;2023-08-08T00:36:28;14.70;99.90
21811;DHT22;11067;48.788;9.208;2023-08-08T00:38:54;14.80;99.90
21811;DHT22;11067;48.788;9.208;2023-08-08T00:41:19;14.80;99.90
21811;DHT22;11067;48.788;9.208;2023-08-08T00:43:45;14.80;99.90
21811;DHT22;11067;48.788;9.208;2023-08-08T00:46:11;14.80;99.90
21811;DHT22;11067;48.788;9.208;2023-08-08T00:48:36;14.90;99.90
21811;DHT22;11067;48.788;9.208;2023-08-08T00:51:02;14.90;99.90
21811;DHT22;11067;48.788;9.208;2023-08-08T00:53:30;14.90;99.90
21811;DHT22;11067;48.788;9.208;2023-08-08T00:55:58;14.90;99.90
21811;DHT22;11067;48.788;9.208;2023-08-08T00:58:24;15.00;99.90
21811;DHT22;11067;48.788;9.208;2023-08-08T01:00:49;15.00;99.90
21811;DHT22;11067;48.788;9.208;2023-08-08T01:03:15;15.00;99.90
21811;DHT22;11067;48.788;9.208;2023-08-08T01:05:51;15.00;99.90
21811;DHT22;11067;48.788;9.208;2023-08-08T01:08:23;15.00;99.90
21811;DHT22;11067;48.788;9.208;2023-08-08T01:10:52;15.00;99.90
21811;DHT22;11067;48.788;9.208;2023-08-08T01:13:22;15.00;99.90
21811;DHT22;11067;48.788;9.208;2023-08-08T01:15:49;15.00;99.90
21811;DHT22;11067;48.788;9.208;2023-08-08T01:18:16;15.00;99.90
21811;DHT22;11067;48.788;9.208;2023-08-08T01:20:44;15.00;99.90
21811;DHT22;11067;48.788;9.208;2023-08-08T01:23:20;15.10;99.90
21811;DHT22;11067;48.788;9.208;2023-08-08T01:25:49;15.00;99.90
21811;DHT22;11067;48.788;9.208;2023-08-08T01:28:15;15.00;99.90
21811;DHT22;11067;48.788;9.208;2023-08-08T01:30:41;15.10;99.90
21811;DHT22;11067;48.788;9.208;2023-08-08T01:33:08;15.10;99.90
21811;DHT22;11067;48.788;9.208;2023-08-08T01:35:38;15.10;99.90
21811;DHT22;11067;48.788;9.208;2023-08-08T01:38:32;15.10;99.90
21811;DHT22;11067;48.788;9.208;2023-08-08T01:40:59;15.00;99.90
21811;DHT22;11067;48.788;9.208;2023-08-08T01:43:25;15.00;99.90
21811;DHT22;11067;48.788;9.208;2023-08-08T01:45:52;15.00;99.90
21811;DHT22;11067;48.788;9.208;2023-08-08T01:48:18;15.00;99.90
21811;DHT22;11067;48.788;9.208;2023-08-08T01:50:43;15.00;99.90
21811;DHT22;11067;48.788;9.208;2023-08-08T01:53:09;15.00;99.90
21811;DHT22;11067;48.788;9.208;2023-08-08T01:55:35;15.00;99.90
21811;DHT22;11067;48.788;9.208;2023-08-08T01:58:00;15.10;99.90
21811;DHT22;11067;48.788;9.208;2023-08-08T02:00:26;15.10;99.90
21811;DHT22;11067;48.788;9.208;2023-08-08T02:02:51;15.10;99.90
21811;DHT22;11067;48.788;9.208;2023-08-08T02:05:17;15.10;99.90
21811;DHT22;11067;48.788;9.208;2023-08-08T02:07:42;15.10;99.90
21811;DHT22;11067;48.788;9.208;2023-08-08T02:10:08;15.20;99.90
21811;DHT22;11067;48.788;9.208;2023-08-08T02:12:34;15.20;99.90
21811;DHT22;11067;48.788;9.208;2023-08-08T02:14:59;15.20;99.90
21811;DHT22;11067;48.788;9.208;2023-08-08T02:17:25;15.20;99.90
21811;DHT22;11067;48.788;9.208;2023-08-08T02:19:51;15.20;99.90
21811;DHT22;11067;48.788;9.208;2023-08-08T02:22:17;15.20;99.90
21811;DHT22;11067;48.788;9.208;2023-08-08T02:24:43;15.20;99.90
21811;DHT22;11067;48.788;9.208;2023-08-08T02:27:09;15.20;99.90
21811;DHT22;11067;48.788;9.208;2023-08-08T02:29:34;15.10;99.90
21811;DHT22;11067;48.788;9.208;2023-08-08T02:32:00;15.20;99.90
21811;DHT22;11067;48.788;9.208;2023-08-08T02:34:25;15.10;99.90
21811;DHT22;11067;48.788;9.208;2023-08-08T02:36:51;15.10;99.90
21811;DHT22;11067;48.788;9.208;2023-08-08T02:39:17;15.00;99.90
21811;DHT22;11067;48.788;9.208;2023-08-08T02:41:43;14.90;99.90
21811;DHT22;11067;48.788;9.208;2023-08-08T02:44:08;14.90;99.90
21811;DHT22;11067;48.788;9.208;2023-08-08T02:46:34;14.90;99.90
21811;DHT22;11067;48.788;9.208;2023-08-08T02:49:00;14.80;99.90
21811;DHT22;11067;48.788;9.208;2023-08-08T02:51:25;14.80;99.90
21811;DHT22;11067;48.788;9.208;2023-08-08T02:53:51;14.80;99.90
21811;DHT22;11067;48.788;9.208;2023-08-08T02:56:16;14.70;99.90
21811;DHT22;11067;48.788;9.208;2023-08-08T02:58:42;14.70;99.90
21811;DHT22;11067;48.788;9.208;2023-08-08T03:01:07;14.70;99.90
21811;DHT22;11067;48.788;9.208;2023-08-08T03:03:33;14.70;99.90
21811;DHT22;11067;48.788;9.208;2023-08-08T03:05:58;14.70;99.90
21811;DHT22;11067;48.788;9.208;2023-08-08T03:08:24;14.70;99.90
21811;DHT22;11067;48.788;9.208;2023-08-08T03:10:49;14.70;99.90
21811;DHT22;11067;48.788;9.208;2023-08-08T03:13:15;14.60;99.90
21811;DHT22;11067;48.788;9.208;2023-08-08T03:15:40;14.60;99.90
21811;DHT22;11067;48.788;9.208;2023-08-08T03:18:06;14.60;99.90
21811;DHT22;11067;48.788;9.208;2023-08-08T03:20:31;14.60;99.90
21811;DHT22;11067;48.788;9.208;2023-08-08T03:22:57;14.50;99.90
21811;DHT22;11067;48.788;9.208;2023-08-08T03:25:22;14.50;99.90
21811;DHT22;11067;48.788;9.208;2023-08-08T03:27:48;14.50;99.90
21811;DHT22;11067;48.788;9.208;2023-08-08T03:30:14;14.40;99.90
21811;DHT22;11067;48.788;9.208;2023-08-08T03:32:40;14.50;99.90
21811;DHT22;11067;48.788;9.208;2023-08-08T03:35:06;14.40;99.90
21811;DHT22;11067;48.788;9.208;2023-08-08T03:37:31;14.40;99.90
21811;DHT22;11067;48.788;9.208;2023-08-08T03:39:57;14.40;99.90
21811;DHT22;11067;48.788;9.208;2023-08-08T03:42:22;14.40;99.90
21811;DHT22;11067;48.788;9.208;2023-08-08T03:44:48;14.50;99.90
21811;DHT22;11067;48.788;9.208;2023-08-08T03:47:13;14.50;99.90
21811;DHT22;11067;48.788;9.208;2023-08-08T03:49:39;14.50;99.90
21811;DHT22;11067;48.788;9.208;2023-08-08T03:52:05;14.50;99.90
21811;DHT22;11067;48.788;9.208;2023-08-08T03:54:30;14.60;99.90
21811;DHT22;11067;48.788;9.208;2023-08-08T03:56:56;14.60;99.90
21811;DHT22;11067;48.788;9.208;2023-08-08T03:59:22;14.70;99.90
21811;DHT22;11067;48.788;9.208;2023-08-08T04:01:47;14.70;99.90
21811;DHT22;11067;48.788;9.208;2023-08-08T04:04:13;14.70;99.90
21811;DHT22;11067;48.788;9.208;2023-08-08T04:06:38;14.80;99.90
21811;DHT22;11067;48.788;9.208;2023-08-08T04:09:04;14.70;99.90
21811;DHT22;11067;48.788;9.208;2023-08-08T04:11:29;14.80;99.90
21811;DHT22;11067;48.788;9.208;2023-08-08T04:13:55;14.80;99.90
21811;DHT22;11067;48.788;9.208;2023-08-08T04:16:20;14.80;99.90
21811;DHT22;11067;48.788;9.208;2023-08-08T04:18:46;14.80;99.90
21811;DHT22;11067;48.788;9.208;2023-08-08T04:21:11;14.80;99.90
21811;DHT22;11067;48.788;9.208;2023-08-08T04:23:37;14.80;99.90
21811;DHT22;11067;48.788;9.208;2023-08-08T04:26:02;14.80;99.90
21811;DHT22;11067;48.788;9.208;2023-08-08T04:28:28;14.80;99.90
21811;DHT22;11067;48.788;9.208;2023-08-08T04:30:54;14.90;99.90
21811;DHT22;11067;48.788;9.208;2023-08-08T04:33:19;14.80;99.90
21811;DHT22;11067;48.788;9.208;2023-08-08T04:35:45;14.90;99.90
21811;DHT22;11067;48.788;9.208;2023-08-08T04:38:10;14.90;99.90
21811;DHT22;11067;48.788;9.208;2023-08-08T04:40:36;14.90;99.90
21811;DHT22;11067;48.788;9.208;2023-08-08T04:43:01;15.00;99.90
21811;DHT22;11067;48.788;9.208;2023-08-08T04:45:27;14.90;99.90
21811;DHT22;11067;48.788;9.208;2023-08-08T04:47:54;15.00;99.90
21811;DHT22;11067;48.788;9.208;2023-08-08T04:50:20;15.10;99.90
21811;DHT22;11067;48.788;9.208;2023-08-08T04:52:45;15.10;99.90
21811;DHT22;11067;48.788;9.208;2023-08-08T04:55:11;15.10;99.90
21811;DHT22;11067;48.788;9.208;2023-08-08T04:57:36;15.30;99.90
21811;DHT22;11067;48.788;9.208;2023-08-08T05:00:02;15.70;99.90
21811;DHT22;11067;48.788;9.208;2023-08-08T05:02:30;15.90;99.90
21811;DHT22;11067;48.788;9.208;2023-08-08T05:04:56;16.10;99.90
21811;DHT22;11067;48.788;9.208;2023-08-08T05:07:21;16.10;99.90
21811;DHT22;11067;48.788;9.208;2023-08-08T05:09:47;16.20;99.90
21811;DHT22;11067;48.788;9.208;2023-08-08T05:12:12;16.30;99.90
21811;DHT22;11067;48.788;9.208;2023-08-08T05:14:38;16.10;99.90
21811;DHT22;11067;48.788;9.208;2023-08-08T05:17:04;16.10;99.90
21811;DHT22;11067;48.788;9.208;2023-08-08T05:19:30;16.20;99.90
21811;DHT22;11067;48.788;9.208;2023-08-08T05:21:55;16.70;99.90
21811;DHT22;11067;48.788;9.208;2023-08-08T05:24:21;16.90;99.90
21811;DHT22;11067;48.788;9.208;2023-08-08T05:26:46;17.00;99.90
21811;DHT22;11067;48.788;9.208;2023-08-08T05:29:12;17.40;99.90
21811;DHT22;11067;48.788;9.208;2023-08-08T05:31:37;17.60;99.90
21811;DHT22;11067;48.788;9.208;2023-08-08T05:34:03;18.00;99.90
21811;DHT22;11067;48.788;9.208;2023-08-08T05:36:28;18.20;99.90
21811;DHT22;11067;48.788;9.208;2023-08-08T05:38:54;18.30;99.90
21811;DHT22;11067;48.788;9.208;2023-08-08T05:41:20;18.60;99.90
21811;DHT22;11067;48.788;9.208;2023-08-08T05:43:45;18.80;99.90
21811;DHT22;11067;48.788;9.208;2023-08-08T05:46:11;19.20;99.90
21811;DHT22;11067;48.788;9.208;2023-08-08T05:48:36;18.90;99.90
21811;DHT22;11067;48.788;9.208;2023-08-08T05:51:02;19.30;99.90
21811;DHT22;11067;48.788;9.208;2023-08-08T05:53:30;19.30;99.90
21811;DHT22;11067;48.788;9.208;2023-08-08T05:55:57;19.90;99.90
21811;DHT22;11067;48.788;9.208;2023-08-08T05:58:22;19.50;99.90
21811;DHT22;11067;48.788;9.208;2023-08-08T06:00:48;19.20;99.90
21811;DHT22;11067;48.788;9.208;2023-08-08T06:03:13;19.00;99.90
21811;DHT22;11067;48.788;9.208;2023-08-08T06:05:39;19.90;99.90
21811;DHT22;11067;48.788;9.208;2023-08-08T06:08:04;19.80;99.90
21811;DHT22;11067;48.788;9.208;2023-08-08T06:10:33;20.50;99.90
21811;DHT22;11067;48.788;9.208;2023-08-08T06:12:59;20.40;99.90
21811;DHT22;11067;48.788;9.208;2023-08-08T06:15:25;20.30;99.90
21811;DHT22;11067;48.788;9.208;2023-08-08T06:17:51;20.20;99.90
21811;DHT22;11067;48.788;9.208;2023-08-08T06:20:16;20.30;99.90
21811;DHT22;11067;48.788;9.208;2023-08-08T06:22:42;20.30;99.90
21811;DHT22;11067;48.788;9.208;2023-08-08T06:25:08;20.10;99.90
21811;DHT22;11067;48.788;9.208;2023-08-08T06:27:33;20.80;99.90
21811;DHT22;11067;48.788;9.208;2023-08-08T06:29:59;20.70;99.90
21811;DHT22;11067;48.788;9.208;2023-08-08T06:32:24;21.10;99.90
21811;DHT22;11067;48.788;9.208;2023-08-08T06:34:50;21.50;99.90
21811;DHT22;11067;48.788;9.208;2023-08-08T06:37:15;21.10;99.90
21811;DHT22;11067;48.788;9.208;2023-08-08T06:39:41;20.50;99.90
21811;DHT22;11067;48.788;9.208;2023-08-08T06:42:07;20.30;99.90
21811;DHT22;11067;48.788;9.208;2023-08-08T06:44:40;20.50;99.90
21811;DHT22;11067;48.788;9.208;2023-08-08T06:47:05;19.90;99.90
21811;DHT22;11067;48.788;9.208;2023-08-08T06:49:31;19.90;99.90
21811;DHT22;11067;48.788;9.208;2023-08-08T06:51:56;19.60;99.90
21811;DHT22;11067;48.788;9.208;2023-08-08T06:54:22;19.30;99.90
21811;DHT22;11067;48.788;9.208;2023-08-08T06:56:48;18.70;99.90
21811;DHT22;11067;48.788;9.208;2023-08-08T06:59:13;19.00;99.90
21811;DHT22;11067;48.788;9.208;2023-08-08T07:01:39;19.10;99.90
21811;DHT22;11067;48.788;9.208;2023-08-08T07:04:04;19.00;99.90
21811;DHT22;11067;48.788;9.208;2023-08-08T07:06:30;18.60;99.90
21811;DHT22;11067;48.788;9.208;2023-08-08T07:08:55;18.90;99.90
21811;DHT22;11067;48.788;9.208;2023-08-08T07:11:21;18.80;99.90
21811;DHT22;11067;48.788;9.208;2023-08-08T07:13:47;18.70;99.90
21811;DHT22;11067;48.788;9.208;2023-08-08T07:16:12;18.80;99.90
21811;DHT22;11067;48.788;9.208;2023-08-08T07:18:38;18.80;99.90
21811;DHT22;11067;48.788;9.208;2023-08-08T07:21:03;18.80;99.90
21811;DHT22;11067;48.788;9.208;2023-08-08T07:23:29;19.00;99.90
21811;DHT22;11067;48.788;9.208;2023-08-08T07:25:54;19.00;99.90
21811;DHT22;11067;48.788;9.208;2023-08-08T07:28:20;18.90;99.90
21811;DHT22;11067;48.788;9.208;2023-08-08T07:30:46;19.20;99.90
21811;DHT22;11067;48.788;9.208;2023-08-08T07:33:11;19.30;99.90
21811;DHT22;11067;48.788;9.208;2023-08-08T07:35:38;19.10;99.90
21811;DHT22;11067;48.788;9.208;2023-08-08T07:38:04;19.00;99.90
21811;DHT22;11067;48.788;9.208;2023-08-08T07:40:30;19.10;99.90
21811;DHT22;11067;48.788;9.208;2023-08-08T07:42:56;19.30;99.90
21811;DHT22;11067;48.788;9.208;2023-08-08T07:45:21;19.60;99.90
21811;DHT22;11067;48.788;9.208;2023-08-08T07:47:47;19.70;99.90
21811;DHT22;11067;48.788;9.208;2023-08-08T07:50:13;19.50;99.90
21811;DHT22;11067;48.788;9.208;2023-08-08T07:52:39;19.80;99.90
21811;DHT22;11067;48.788;9.208;2023-08-08T07:55:06;20.20;99.90
21811;DHT22;11067;48.788;9.208;2023-08-08T07:57:32;20.20;99.90
21811;DHT22;11067;48.788;9.208;2023-08-08T08:00:00;20.10;99.90
21811;DHT22;11067;48.788;9.208;2023-08-08T08:02:32;20.20;99.90
21811;DHT22;11067;48.788;9.208;2023-08-08T08:04:57;20.10;99.90
21811;DHT22;11067;48.788;9.208;2023-08-08T08:07:23;19.90;99.90
21811;DHT22;11067;48.788;9.208;2023-08-08T08:09:49;19.90;99.90
21811;DHT22;11067;48.788;9.208;2023-08-08T08:12:14;20.00;99.90
21811;DHT22;11067;48.788;9.208;2023-08-08T08:14:40;20.00;99.90
21811;DHT22;11067;48.788;9.208;2023-08-08T08:17:05;19.80;99.90
21811;DHT22;11067;48.788;9.208;2023-08-08T08:19:31;19.90;99.90
21811;DHT22;11067;48.788;9.208;2023-08-08T08:21:56;20.10;99.90
21811;DHT22;11067;48.788;9.208;2023-08-08T08:24:22;20.00;99.90
21811;DHT22;11067;48.788;9.208;2023-08-08T08:26:48;20.40;99.90
21811;DHT22;11067;48.788;9.208;2023-08-08T08:29:14;20.20;99.90
21811;DHT22;11067;48.788;9.208;2023-08-08T08:31:39;20.30;99.90
21811;DHT22;11067;48.788;9.208;2023-08-08T08:34:05;20.20;99.90
21811;DHT22;11067;48.788;9.208;2023-08-08T08:36:30;20.00;99.90
21811;DHT22;11067;48.788;9.208;2023-08-08T08:38:56;20.00;99.90
21811;DHT22;11067;48.788;9.208;2023-08-08T08:41:27;20.00;99.90
21811;DHT22;11067;48.788;9.208;2023-08-08T08:43:54;20.10;99.90
21811;DHT22;11067;48.788;9.208;2023-08-08T08:46:21;20.20;99.90
21811;DHT22;11067;48.788;9.208;2023-08-08T08:48:49;20.10;99.90
21811;DHT22;11067;48.788;9.208;2023-08-08T08:51:15;20.00;99.90
21811;DHT22;11067;48.788;9.208;2023-08-08T08:53:41;20.30;99.90
21811;DHT22;11067;48.788;9.208;2023-08-08T08:56:13;20.10;99.90
21811;DHT22;11067;48.788;9.208;2023-08-08T08:58:39;20.20;99.90
21811;DHT22;11067;48.788;9.208;2023-08-08T09:01:07;20.10;99.90
21811;DHT22;11067;48.788;9.208;2023-08-08T09:03:32;20.20;99.90
21811;DHT22;11067;48.788;9.208;2023-08-08T09:05:59;20.30;99.90
21811;DHT22;11067;48.788;9.208;2023-08-08T09:08:25;20.40;99.90
21811;DHT22;11067;48.788;9.208;2023-08-08T09:10:50;20.60;99.90
21811;DHT22;11067;48.788;9.208;2023-08-08T09:13:16;20.60;99.90
21811;DHT22;11067;48.788;9.208;2023-08-08T09:15:42;20.70;99.90
21811;DHT22;11067;48.788;9.208;2023-08-08T09:18:08;20.60;99.90
21811;DHT22;11067;48.788;9.208;2023-08-08T09:20:33;20.40;99.90
21811;DHT22;11067;48.788;9.208;2023-08-08T09:22:59;20.60;99.90
21811;DHT22;11067;48.788;9.208;2023-08-08T09:25:26;21.00;99.90
21811;DHT22;11067;48.788;9.208;2023-08-08T09:27:52;21.20;99.90
21811;DHT22;11067;48.788;9.208;2023-08-08T09:30:21;21.40;99.90
21811;DHT22;11067;48.788;9.208;2023-08-08T09:32:47;21.30;99.90
21811;DHT22;11067;48.788;9.208;2023-08-08T09:35:12;21.00;99.90
21811;DHT22;11067;48.788;9.208;2023-08-08T09:37:38;21.00;99.90
21811;DHT22;11067;48.788;9.208;2023-08-08T09:40:05;21.10;99.90
21811;DHT22;11067;48.788;9.208;2023-08-08T09:42:34;21.10;99.90
21811;DHT22;11067;48.788;9.208;2023-08-08T09:45:00;21.30;99.90
21811;DHT22;11067;48.788;9.208;2023-08-08T09:47:28;21.90;99.90
21811;DHT22;11067;48.788;9.208;2023-08-08T09:50:00;21.50;99.90
21811;DHT22;11067;48.788;9.208;2023-08-08T09:52:27;21.60;99.90
21811;DHT22;11067;48.788;9.208;2023-08-08T09:54:53;21.70;99.90
21811;DHT22;11067;48.788;9.208;2023-08-08T09:57:18;21.70;99.90
21811;DHT22;11067;48.788;9.208;2023-08-08T09:59:45;21.90;99.90
21811;DHT22;11067;48.788;9.208;2023-08-08T10:02:14;21.60;99.90
21811;DHT22;11067;48.788;9.208;2023-08-08T10:04:41;21.70;99.90
21811;DHT22;11067;48.788;9.208;2023-08-08T10:07:06;22.00;99.90
21811;DHT22;11067;48.788;9.208;2023-08-08T10:09:33;21.50;99.90
21811;DHT22;11067;48.788;9.208;2023-08-08T10:11:59;21.70;99.90
21811;DHT22;11067;48.788;9.208;2023-08-08T10:14:31;21.50;99.60
21811;DHT22;11067;48.788;9.208;2023-08-08T10:16:57;21.40;97.30
21811;DHT22;11067;48.788;9.208;2023-08-08T10:19:23;21.50;99.40
21811;DHT22;11067;48.788;9.208;2023-08-08T10:21:57;21.80;99.90
21811;DHT22;11067;48.788;9.208;2023-08-08T10:24:23;22.00;99.30
21811;DHT22;11067;48.788;9.208;2023-08-08T10:26:57;22.10;96.20
21811;DHT22;11067;48.788;9.208;2023-08-08T10:29:26;22.00;94.00
21811;DHT22;11067;48.788;9.208;2023-08-08T10:32:04;22.00;93.00
21811;DHT22;11067;48.788;9.208;2023-08-08T10:34:41;22.10;92.00
21811;DHT22;11067;48.788;9.208;2023-08-08T10:37:17;22.30;91.70
21811;DHT22;11067;48.788;9.208;2023-08-08T10:39:53;22.60;91.80
21811;DHT22;11067;48.788;9.208;2023-08-08T10:42:20;22.30;90.30
21811;DHT22;11067;48.788;9.208;2023-08-08T10:44:55;22.40;90.60
21811;DHT22;11067;48.788;9.208;2023-08-08T10:47:25;22.50;90.00
21811;DHT22;11067;48.788;9.208;2023-08-08T10:50:21;22.30;84.80
21811;DHT22;11067;48.788;9.208;2023-08-08T10:55:30;22.20;88.80
21811;DHT22;11067;48.788;9.208;2023-08-08T10:58:07;22.50;83.00
21811;DHT22;11067;48.788;9.208;2023-08-08T11:00:34;22.30;80.30
21811;DHT22;11067;48.788;9.208;2023-08-08T11:03:02;22.00;81.70
21811;DHT22;11067;48.788;9.208;2023-08-08T11:05:31;22.10;84.30
21811;DHT22;11067;48.788;9.208;2023-08-08T11:07:57;22.30;80.90
21811;DHT22;11067;48.788;9.208;2023-08-08T11:10:23;22.40;77.80
21811;DHT22;11067;48.788;9.208;2023-08-08T11:13:00;22.70;78.60
21811;DHT22;11067;48.788;9.208;2023-08-08T11:15:26;22.30;82.70
21811;DHT22;11067;48.788;9.208;2023-08-08T11:17:54;22.30;84.60
21811;DHT22;11067;48.788;9.208;2023-08-08T11:20:20;22.30;82.70
21811;DHT22;11067;48.788;9.208;2023-08-08T11:22:53;22.40;82.40
21811;DHT22;11067;48.788;9.208;2023-08-08T11:25:20;22.20;82.00
21811;DHT22;11067;48.788;9.208;2023-08-08T11:27:50;22.10;83.70
21811;DHT22;11067;48.788;9.208;2023-08-08T11:30:17;22.00;85.70
21811;DHT22;11067;48.788;9.208;2023-08-08T11:32:42;21.90;87.70
21811;DHT22;11067;48.788;9.208;2023-08-08T11:35:08;22.50;87.80
21811;DHT22;11067;48.788;9.208;2023-08-08T11:37:34;22.80;77.40
21811;DHT22;11067;48.788;9.208;2023-08-08T11:40:00;22.70;68.40
21811;DHT22;11067;48.788;9.208;2023-08-08T11:42:26;22.90;72.10
21811;DHT22;11067;48.788;9.208;2023-08-08T11:44:52;23.10;74.00
21811;DHT22;11067;48.788;9.208;2023-08-08T11:47:22;23.10;70.50
21811;DHT22;11067;48.788;9.208;2023-08-08T11:49:51;22.90;72.50
21811;DHT22;11067;48.788;9.208;2023-08-08T11:52:18;22.90;72.30
21811;DHT22;11067;48.788;9.208;2023-08-08T11:54:44;22.70;74.60
21811;DHT22;11067;48.788;9.208;2023-08-08T11:57:09;22.30;79.40
21811;DHT22;11067;48.788;9.208;2023-08-08T11:59:35;22.40;81.50
21811;DHT22;11067;48.788;9.208;2023-08-08T12:02:01;22.80;81.10
21811;DHT22;11067;48.788;9.208;2023-08-08T12:04:27;23.20;80.20
21811;DHT22;11067;48.788;9.208;2023-08-08T12:07:01;23.50;71.70
21811;DHT22;11067;48.788;9.208;2023-08-08T12:09:33;23.10;70.60
21811;DHT22;11067;48.788;9.208;2023-08-08T12:12:03;23.50;69.30
21811;DHT22;11067;48.788;9.208;2023-08-08T12:14:29;23.10;70.50
21811;DHT22;11067;48.788;9.208;2023-08-08T12:16:55;23.10;72.80
21811;DHT22;11067;48.788;9.208;2023-08-08T12:19:25;22.70;74.10
21811;DHT22;11067;48.788;9.208;2023-08-08T12:21:51;23.00;74.80
21811;DHT22;11067;48.788;9.208;2023-08-08T12:24:18;23.10;74.60
21811;DHT22;11067;48.788;9.208;2023-08-08T12:26:44;23.30;71.20
21811;DHT22;11067;48.788;9.208;2023-08-08T12:29:09;23.60;71.90
21811;DHT22;11067;48.788;9.208;2023-08-08T12:31:35;23.60;70.50
21811;DHT22;11067;48.788;9.208;2023-08-08T12:34:01;23.40;71.50
21811;DHT22;11067;48.788;9.208;2023-08-08T12:36:26;23.20;67.70
21811;DHT22;11067;48.788;9.208;2023-08-08T12:38:52;22.90;69.40
21811;DHT22;11067;48.788;9.208;2023-08-08T12:41:18;23.10;72.50
21811;DHT22;11067;48.788;9.208;2023-08-08T12:43:43;23.00;73.80
21811;DHT22;11067;48.788;9.208;2023-08-08T12:46:09;22.80;77.00
21811;DHT22;11067;48.788;9.208;2023-08-08T12:48:34;22.80;80.70
21811;DHT22;11067;48.788;9.208;2023-08-08T12:51:00;22.90;80.80
21811;DHT22;11067;48.788;9.208;2023-08-08T12:53:26;23.10;81.10
21811;DHT22;11067;48.788;9.208;2023-08-08T12:55:51;23.00;82.50
21811;DHT22;11067;48.788;9.208;2023-08-08T12:58:17;23.10;77.80
21811;DHT22;11067;48.788;9.208;2023-08-08T13:00:43;23.10;77.00
21811;DHT22;11067;48.788;9.208;2023-08-08T13:03:08;23.30;75.50
21811;DHT22;11067;48.788;9.208;2023-08-08T13:05:35;23.40;75.20
21811;DHT22;11067;48.788;9.208;2023-08-08T13:08:01;23.30;75.20
21811;DHT22;11067;48.788;9.208;2023-08-08T13:10:26;23.50;77.60
21811;DHT22;11067;48.788;9.208;2023-08-08T13:12:52;23.50;76.10
21811;DHT22;11067;48.788;9.208;2023-08-08T13:15:17;23.70;76.80
21811;DHT22;11067;48.788;9.208;2023-08-08T13:17:43;23.10;79.70
21811;DHT22;11067;48.788;9.208;2023-08-08T13:20:09;23.10;81.10
21811;DHT22;11067;48.788;9.208;2023-08-08T13:22:35;23.10;81.00
21811;DHT22;11067;48.788;9.208;2023-08-08T13:25:00;23.10;80.90
21811;DHT22;11067;48.788;9.208;2023-08-08T13:27:26;23.00;83.80
21811;DHT22;11067;48.788;9.208;2023-08-08T13:29:51;23.10;87.10
21811;DHT22;11067;48.788;9.208;2023-08-08T13:32:17;23.20;89.20
21811;DHT22;11067;48.788;9.208;2023-08-08T13:34:43;23.20;90.80
21811;DHT22;11067;48.788;9.208;2023-08-08T13:37:09;23.30;91.30
21811;DHT22;11067;48.788;9.208;2023-08-08T13:39:34;23.70;91.00
21811;DHT22;11067;48.788;9.208;2023-08-08T13:42:00;23.60;90.50
21811;DHT22;11067;48.788;9.208;2023-08-08T13:44:26;23.40;90.20
21811;DHT22;11067;48.788;9.208;2023-08-08T13:46:51;23.10;86.00
21811;DHT22;11067;48.788;9.208;2023-08-08T13:49:17;23.30;88.00
21811;DHT22;11067;48.788;9.208;2023-08-08T13:51:42;23.00;87.40
21811;DHT22;11067;48.788;9.208;2023-08-08T13:54:09;22.90;88.80
21811;DHT22;11067;48.788;9.208;2023-08-08T13:56:34;23.20;87.40
21811;DHT22;11067;48.788;9.208;2023-08-08T13:59:00;23.30;85.00
21811;DHT22;11067;48.788;9.208;2023-08-08T14:01:25;23.40;85.40
21811;DHT22;11067;48.788;9.208;2023-08-08T14:03:51;23.30;86.40
21811;DHT22;11067;48.788;9.208;2023-08-08T14:06:17;23.30;87.90
21811;DHT22;11067;48.788;9.208;2023-08-08T14:08:42;23.50;84.00
21811;DHT22;11067;48.788;9.208;2023-08-08T14:11:08;23.70;83.50
21811;DHT22;11067;48.788;9.208;2023-08-08T14:13:33;23.70;84.30
21811;DHT22;11067;48.788;9.208;2023-08-08T14:16:00;23.60;84.90
21811;DHT22;11067;48.788;9.208;2023-08-08T14:18:26;23.30;87.30
21811;DHT22;11067;48.788;9.208;2023-08-08T14:20:51;23.40;87.10
21811;DHT22;11067;48.788;9.208;2023-08-08T14:23:17;22.90;86.70
21811;DHT22;11067;48.788;9.208;2023-08-08T14:25:42;23.00;88.20
21811;DHT22;11067;48.788;9.208;2023-08-08T14:28:08;23.00;89.70
21811;DHT22;11067;48.788;9.208;2023-08-08T14:30:33;22.90;89.50
21811;DHT22;11067;48.788;9.208;2023-08-08T14:32:59;23.20;90.40
21811;DHT22;11067;48.788;9.208;2023-08-08T14:35:24;23.10;90.60
21811;DHT22;11067;48.788;9.208;2023-08-08T14:37:50;23.10;90.60
21811;DHT22;11067;48.788;9.208;2023-08-08T14:40:15;23.10;90.70
21811;DHT22;11067;48.788;9.208;2023-08-08T14:42:41;23.10;91.30
21811;DHT22;11067;48.788;9.208;2023-08-08T14:45:07;23.00;91.40
21811;DHT22;11067;48.788;9.208;2023-08-08T14:47:32;23.00;91.20
21811;DHT22;11067;48.788;9.208;2023-08-08T14:49:58;22.90;91.90
21811;DHT22;11067;48.788;9.208;2023-08-08T14:52:23;22.80;92.20
21811;DHT22;11067;48.788;9.208;2023-08-08T14:54:51;22.70;92.10
21811;DHT22;11067;48.788;9.208;2023-08-08T14:57:16;22.80;92.00
21811;DHT22;11067;48.788;9.208;2023-08-08T14:59:42;22.60;91.80
21811;DHT22;11067;48.788;9.208;2023-08-08T15:02:08;22.70;92.40
21811;DHT22;11067;48.788;9.208;2023-08-08T15:04:33;22.80;92.90
21811;DHT22;11067;48.788;9.208;2023-08-08T15:06:59;23.10;92.70
21811;DHT22;11067;48.788;9.208;2023-08-08T15:09:24;22.90;92.20
21811;DHT22;11067;48.788;9.208;2023-08-08T15:11:50;22.70;92.80
21811;DHT22;11067;48.788;9.208;2023-08-08T15:14:16;22.70;93.20
21811;DHT22;11067;48.788;9.208;2023-08-08T15:16:41;22.80;93.60
21811;DHT22;11067;48.788;9.208;2023-08-08T15:19:08;22.50;94.00
21811;DHT22;11067;48.788;9.208;2023-08-08T15:21:33;22.40;94.70
21811;DHT22;11067;48.788;9.208;2023-08-08T15:23:59;22.30;95.30
21811;DHT22;11067;48.788;9.208;2023-08-08T15:26:25;22.40;95.40